Terminal Aerodrome Forecast
Issued by NWS Jackson, MS

Home | Current Version | Previous Version | Text Only | Print | Product List | Glossary On
Versions: 1 2 3 4 5 6 7 8 9 10 11 12 13 14 15 16 17 18 19
000
FTUS44 KJAN 031731
TAFMEI
TAF
KMEI 031731Z 0318/0418 23010G18KT P6SM SCT050 BKN150
     FM040500 20008KT 3SM TSRA SCT020 BKN035CB
     FM040800 19005KT 5SM -SHRA VCTS BKN040CB
     FM041300 21004KT P6SM BKN060=

USA.gov is the U.S. government's official web portal to all federal, state and local government web resources and services.